Terminal Aerodrome Forecast
Issued by NWS

Home | Current Version | Previous Version | Graphics & Text | Print | Product List | Glossary On
Versions: 1 2 3 4 5 6 7 8 9 10 11 12 13 14
712
FTUS43 KOAX 081646 AAA
TAFCDR
TAF AMD
KCDR 081646Z 0817/0912 32010KT P6SM SKC
     FM081800 30018G28KT P6SM SCT250
     FM090000 30012KT P6SM SCT250=

USA.gov is the U.S. government's official web portal to all federal, state and local government web resources and services.